sensor_id;sensor_type;location;lat;lon;timestamp;pressure;altitude;pressure_sealevel;temperature;humidity
37066;BME280;22981;43.080;25.550;2023-05-29T00:01:57;99359.02;;;16.03;98.57
37066;BME280;22981;43.080;25.550;2023-05-29T00:04:25;99362.50;;;16.01;98.56
37066;BME280;22981;43.080;25.550;2023-05-29T00:06:53;99363.58;;;16.00;98.52
37066;BME280;22981;43.080;25.550;2023-05-29T00:09:21;99359.53;;;15.98;98.45
37066;BME280;22981;43.080;25.550;2023-05-29T00:11:49;99361.42;;;15.97;98.37
37066;BME280;22981;43.080;25.550;2023-05-29T00:14:19;99364.09;;;15.95;98.25
37066;BME280;22981;43.080;25.550;2023-05-29T00:16:49;99359.46;;;15.93;98.15
37066;BME280;22981;43.080;25.550;2023-05-29T00:19:17;99351.90;;;15.90;98.12
37066;BME280;22981;43.080;25.550;2023-05-29T00:21:45;99356.48;;;15.89;98.03
37066;BME280;22981;43.080;25.550;2023-05-29T00:24:15;99362.66;;;15.87;97.92
37066;BME280;22981;43.080;25.550;2023-05-29T00:26:43;99362.66;;;15.85;97.83
37066;BME280;22981;43.080;25.550;2023-05-29T00:29:10;99368.83;;;15.83;97.80
37066;BME280;22981;43.080;25.550;2023-05-29T00:31:38;99369.88;;;15.79;97.76
37066;BME280;22981;43.080;25.550;2023-05-29T00:34:06;99361.23;;;15.77;97.72
37066;BME280;22981;43.080;25.550;2023-05-29T00:36:34;99360.66;;;15.75;97.67
37066;BME280;22981;43.080;25.550;2023-05-29T00:39:01;99367.36;;;15.70;97.72
37066;BME280;22981;43.080;25.550;2023-05-29T00:41:29;99377.62;;;15.70;97.71
37066;BME280;22981;43.080;25.550;2023-05-29T00:43:57;99379.51;;;15.70;97.66
37066;BME280;22981;43.080;25.550;2023-05-29T00:46:24;99383.83;;;15.68;97.56
37066;BME280;22981;43.080;25.550;2023-05-29T00:48:52;99383.28;;;15.69;97.49
37066;BME280;22981;43.080;25.550;2023-05-29T00:51:20;99380.59;;;15.69;97.45
37066;BME280;22981;43.080;25.550;2023-05-29T00:53:49;99376.27;;;15.70;97.40
37066;BME280;22981;43.080;25.550;2023-05-29T00:56:18;99380.59;;;15.71;97.34
37066;BME280;22981;43.080;25.550;2023-05-29T00:58:49;99381.44;;;15.72;97.31
37066;BME280;22981;43.080;25.550;2023-05-29T01:01:18;99377.66;;;15.73;97.31
37066;BME280;22981;43.080;25.550;2023-05-29T01:03:47;99384.68;;;15.74;97.35
37066;BME280;22981;43.080;25.550;2023-05-29T01:06:15;99384.14;;;15.74;97.33
37066;BME280;22981;43.080;25.550;2023-05-29T01:08:43;99380.09;;;15.74;97.31
37066;BME280;22981;43.080;25.550;2023-05-29T01:11:25;99374.95;;;15.73;97.37
37066;BME280;22981;43.080;25.550;2023-05-29T01:13:52;99382.78;;;15.72;97.57
37066;BME280;22981;43.080;25.550;2023-05-29T01:16:35;99372.80;;;15.72;97.59
37066;BME280;22981;43.080;25.550;2023-05-29T01:21:42;99365.16;;;15.67;97.56
37066;BME280;22981;43.080;25.550;2023-05-29T01:24:14;99360.81;;;15.63;97.66
37066;BME280;22981;43.080;25.550;2023-05-29T01:26:48;99365.62;;;15.61;97.78
37066;BME280;22981;43.080;25.550;2023-05-29T01:29:18;99371.80;;;15.57;97.93
37066;BME280;22981;43.080;25.550;2023-05-29T01:31:46;99363.42;;;15.56;98.08
37066;BME280;22981;43.080;25.550;2023-05-29T01:34:15;99373.41;;;15.58;98.19
37066;BME280;22981;43.080;25.550;2023-05-29T01:36:42;99367.78;;;15.59;98.24
37066;BME280;22981;43.080;25.550;2023-05-29T01:39:10;99369.94;;;15.60;98.29
37066;BME280;22981;43.080;25.550;2023-05-29T01:41:38;99370.48;;;15.62;98.30
37066;BME280;22981;43.080;25.550;2023-05-29T01:44:08;99365.16;;;15.64;98.19
37066;BME280;22981;43.080;25.550;2023-05-29T01:46:37;99361.66;;;15.66;98.16
37066;BME280;22981;43.080;25.550;2023-05-29T01:49:05;99361.70;;;15.69;98.04
37066;BME280;22981;43.080;25.550;2023-05-29T01:51:34;99359.54;;;15.71;97.98
37066;BME280;22981;43.080;25.550;2023-05-29T01:54:02;99357.11;;;15.69;98.00
37066;BME280;22981;43.080;25.550;2023-05-29T01:56:30;99354.14;;;15.71;98.11
37066;BME280;22981;43.080;25.550;2023-05-29T01:58:59;99352.52;;;15.70;98.16
37066;BME280;22981;43.080;25.550;2023-05-29T02:01:27;99351.17;;;15.70;98.24
37066;BME280;22981;43.080;25.550;2023-05-29T02:03:55;99352.25;;;15.71;98.32
37066;BME280;22981;43.080;25.550;2023-05-29T02:06:23;99345.77;;;15.70;98.32
37066;BME280;22981;43.080;25.550;2023-05-29T02:08:51;99352.79;;;15.68;98.47
37066;BME280;22981;43.080;25.550;2023-05-29T02:11:18;99358.19;;;15.68;98.60
37066;BME280;22981;43.080;25.550;2023-05-29T02:13:46;99356.84;;;15.68;98.65
37066;BME280;22981;43.080;25.550;2023-05-29T02:16:14;99353.87;;;15.70;98.62
37066;BME280;22981;43.080;25.550;2023-05-29T02:18:43;99355.22;;;15.70;98.51
37066;BME280;22981;43.080;25.550;2023-05-29T02:21:11;99353.87;;;15.70;98.46
37066;BME280;22981;43.080;25.550;2023-05-29T02:23:38;99360.35;;;15.71;98.31
37066;BME280;22981;43.080;25.550;2023-05-29T02:26:06;99366.32;;;15.73;98.22
37066;BME280;22981;43.080;25.550;2023-05-29T02:28:34;99365.75;;;15.71;98.14
37066;BME280;22981;43.080;25.550;2023-05-29T02:31:03;99369.80;;;15.71;98.28
37066;BME280;22981;43.080;25.550;2023-05-29T02:33:30;99371.45;;;15.72;98.38
37066;BME280;22981;43.080;25.550;2023-05-29T02:35:58;99370.91;;;15.73;98.36
37066;BME280;22981;43.080;25.550;2023-05-29T02:38:27;99364.40;;;15.71;98.46
37066;BME280;22981;43.080;25.550;2023-05-29T02:40:54;99369.80;;;15.71;98.45
37066;BME280;22981;43.080;25.550;2023-05-29T02:43:22;99373.88;;;15.74;98.45
37066;BME280;22981;43.080;25.550;2023-05-29T02:45:50;99371.99;;;15.74;98.54
37066;BME280;22981;43.080;25.550;2023-05-29T02:48:18;99374.69;;;15.74;98.58
37066;BME280;22981;43.080;25.550;2023-05-29T02:50:45;99372.56;;;15.76;98.59
37066;BME280;22981;43.080;25.550;2023-05-29T02:53:13;99377.66;;;15.75;98.63
37066;BME280;22981;43.080;25.550;2023-05-29T02:55:40;99375.80;;;15.76;98.70
37066;BME280;22981;43.080;25.550;2023-05-29T02:58:09;99374.95;;;15.73;98.82
37066;BME280;22981;43.080;25.550;2023-05-29T03:00:38;99376.05;;;15.74;98.88
37066;BME280;22981;43.080;25.550;2023-05-29T03:03:06;99383.06;;;15.75;98.92
37066;BME280;22981;43.080;25.550;2023-05-29T03:05:33;99379.86;;;15.76;98.97
37066;BME280;22981;43.080;25.550;2023-05-29T03:08:02;99382.28;;;15.77;98.94
37066;BME280;22981;43.080;25.550;2023-05-29T03:10:29;99386.34;;;15.80;98.85
37066;BME280;22981;43.080;25.550;2023-05-29T03:12:57;99383.09;;;15.78;98.89
37066;BME280;22981;43.080;25.550;2023-05-29T03:15:24;99381.71;;;15.75;99.09
37066;BME280;22981;43.080;25.550;2023-05-29T03:17:52;99381.70;;;15.73;99.34
37066;BME280;22981;43.080;25.550;2023-05-29T03:20:19;99386.56;;;15.73;99.60
37066;BME280;22981;43.080;25.550;2023-05-29T03:22:47;99387.95;;;15.76;99.68
37066;BME280;22981;43.080;25.550;2023-05-29T03:25:16;99392.81;;;15.76;99.77
37066;BME280;22981;43.080;25.550;2023-05-29T03:27:43;99389.57;;;15.77;99.87
37066;BME280;22981;43.080;25.550;2023-05-29T03:30:11;99384.98;;;15.77;100.00
37066;BME280;22981;43.080;25.550;2023-05-29T03:32:39;99379.32;;;15.79;100.00
37066;BME280;22981;43.080;25.550;2023-05-29T03:35:07;99387.19;;;15.81;100.00
37066;BME280;22981;43.080;25.550;2023-05-29T03:37:35;99388.54;;;15.83;100.00
37066;BME280;22981;43.080;25.550;2023-05-29T03:40:03;99385.30;;;15.84;100.00
37066;BME280;22981;43.080;25.550;2023-05-29T03:42:31;99385.34;;;15.86;100.00
37066;BME280;22981;43.080;25.550;2023-05-29T03:44:58;99381.02;;;15.88;100.00
37066;BME280;22981;43.080;25.550;2023-05-29T03:47:26;99382.41;;;15.90;100.00
37066;BME280;22981;43.080;25.550;2023-05-29T03:49:54;99388.11;;;15.94;99.96
37066;BME280;22981;43.080;25.550;2023-05-29T03:52:22;99384.88;;;15.94;99.83
37066;BME280;22981;43.080;25.550;2023-05-29T03:54:49;99383.80;;;15.95;99.67
37066;BME280;22981;43.080;25.550;2023-05-29T03:57:17;99386.50;;;15.95;99.64
37066;BME280;22981;43.080;25.550;2023-05-29T03:59:44;99390.81;;;15.96;99.67
37066;BME280;22981;43.080;25.550;2023-05-29T04:02:12;99390.00;;;15.96;99.74
37066;BME280;22981;43.080;25.550;2023-05-29T04:04:41;99391.89;;;15.95;99.81
37066;BME280;22981;43.080;25.550;2023-05-29T04:07:10;99388.38;;;15.95;99.93
37066;BME280;22981;43.080;25.550;2023-05-29T04:09:37;99395.41;;;15.96;100.00
37066;BME280;22981;43.080;25.550;2023-05-29T04:12:06;99395.67;;;15.97;100.00
37066;BME280;22981;43.080;25.550;2023-05-29T04:14:33;99401.66;;;15.99;100.00
37066;BME280;22981;43.080;25.550;2023-05-29T04:17:01;99405.44;;;16.00;100.00
37066;BME280;22981;43.080;25.550;2023-05-29T04:19:30;99413.30;;;16.02;100.00
37066;BME280;22981;43.080;25.550;2023-05-29T04:21:58;99407.36;;;16.02;100.00
37066;BME280;22981;43.080;25.550;2023-05-29T04:24:25;99406.55;;;16.05;100.00
37066;BME280;22981;43.080;25.550;2023-05-29T04:26:54;99405.77;;;16.07;100.00
37066;BME280;22981;43.080;25.550;2023-05-29T04:29:22;99403.88;;;16.07;100.00
37066;BME280;22981;43.080;25.550;2023-05-29T04:31:50;99402.27;;;16.09;100.00
37066;BME280;22981;43.080;25.550;2023-05-29T04:34:20;99395.28;;;16.10;100.00
37066;BME280;22981;43.080;25.550;2023-05-29T04:36:50;99392.85;;;16.11;100.00
37066;BME280;22981;43.080;25.550;2023-05-29T04:39:17;99395.55;;;16.14;100.00
37066;BME280;22981;43.080;25.550;2023-05-29T04:41:47;99394.50;;;16.15;100.00
37066;BME280;22981;43.080;25.550;2023-05-29T04:44:16;99401.80;;;16.17;100.00
37066;BME280;22981;43.080;25.550;2023-05-29T04:46:45;99396.40;;;16.17;100.00
37066;BME280;22981;43.080;25.550;2023-05-29T04:49:13;99405.85;;;16.17;100.00
37066;BME280;22981;43.080;25.550;2023-05-29T04:51:41;99408.02;;;16.17;100.00
37066;BME280;22981;43.080;25.550;2023-05-29T04:54:15;99418.27;;;16.18;100.00
37066;BME280;22981;43.080;25.550;2023-05-29T04:56:43;99423.98;;;16.19;100.00
37066;BME280;22981;43.080;25.550;2023-05-29T04:59:10;99431.81;;;16.20;100.00
37066;BME280;22981;43.080;25.550;2023-05-29T05:01:38;99423.71;;;16.20;100.00
37066;BME280;22981;43.080;25.550;2023-05-29T05:04:07;99426.11;;;16.17;100.00
37066;BME280;22981;43.080;25.550;2023-05-29T05:06:35;99432.32;;;16.17;100.00
37066;BME280;22981;43.080;25.550;2023-05-29T05:09:04;99426.38;;;16.15;100.00
37066;BME280;22981;43.080;25.550;2023-05-29T05:11:31;99429.85;;;16.13;100.00
37066;BME280;22981;43.080;25.550;2023-05-29T05:13:59;99428.77;;;16.12;100.00
37066;BME280;22981;43.080;25.550;2023-05-29T05:16:26;99432.82;;;16.12;100.00
37066;BME280;22981;43.080;25.550;2023-05-29T05:18:54;99433.91;;;16.13;100.00
37066;BME280;22981;43.080;25.550;2023-05-29T05:21:22;99432.31;;;16.15;100.00
37066;BME280;22981;43.080;25.550;2023-05-29T05:23:49;99427.72;;;16.15;100.00
37066;BME280;22981;43.080;25.550;2023-05-29T05:26:17;99426.34;;;16.13;100.00
37066;BME280;22981;43.080;25.550;2023-05-29T05:28:44;99426.88;;;16.12;100.00
37066;BME280;22981;43.080;25.550;2023-05-29T05:31:12;99426.34;;;16.13;100.00
37066;BME280;22981;43.080;25.550;2023-05-29T05:33:39;99431.23;;;16.16;100.00
37066;BME280;22981;43.080;25.550;2023-05-29T05:36:07;99435.83;;;16.18;100.00
37066;BME280;22981;43.080;25.550;2023-05-29T05:38:35;99428.84;;;16.19;100.00
37066;BME280;22981;43.080;25.550;2023-05-29T05:41:03;99427.49;;;16.22;100.00
37066;BME280;22981;43.080;25.550;2023-05-29T05:43:30;99431.04;;;16.25;100.00
37066;BME280;22981;43.080;25.550;2023-05-29T05:45:58;99432.13;;;16.26;100.00
37066;BME280;22981;43.080;25.550;2023-05-29T05:48:26;99433.50;;;16.29;100.00
37066;BME280;22981;43.080;25.550;2023-05-29T05:50:53;99425.13;;;16.31;100.00
37066;BME280;22981;43.080;25.550;2023-05-29T05:53:21;99426.25;;;16.32;100.00
37066;BME280;22981;43.080;25.550;2023-05-29T05:55:48;99426.25;;;16.35;100.00
37066;BME280;22981;43.080;25.550;2023-05-29T05:58:16;99432.49;;;16.38;100.00
37066;BME280;22981;43.080;25.550;2023-05-29T06:00:44;99440.63;;;16.40;100.00
37066;BME280;22981;43.080;25.550;2023-05-29T06:03:11;99446.84;;;16.41;100.00
37066;BME280;22981;43.080;25.550;2023-05-29T06:05:39;99446.84;;;16.41;100.00
37066;BME280;22981;43.080;25.550;2023-05-29T06:08:08;99446.03;;;16.40;100.00
37066;BME280;22981;43.080;25.550;2023-05-29T06:10:35;99445.50;;;16.41;100.00
37066;BME280;22981;43.080;25.550;2023-05-29T06:13:03;99447.66;;;16.41;100.00
37066;BME280;22981;43.080;25.550;2023-05-29T06:15:30;99446.84;;;16.41;100.00
37066;BME280;22981;43.080;25.550;2023-05-29T06:17:58;99443.88;;;16.42;100.00
37066;BME280;22981;43.080;25.550;2023-05-29T06:20:26;99451.98;;;16.42;100.00
37066;BME280;22981;43.080;25.550;2023-05-29T06:22:54;99449.79;;;16.39;100.00
37066;BME280;22981;43.080;25.550;2023-05-29T06:25:21;99451.41;;;16.38;100.00
37066;BME280;22981;43.080;25.550;2023-05-29T06:27:51;99446.27;;;16.36;100.00
37066;BME280;22981;43.080;25.550;2023-05-29T06:30:18;99437.87;;;16.35;100.00
37066;BME280;22981;43.080;25.550;2023-05-29T06:32:46;99442.45;;;16.35;100.00
37066;BME280;22981;43.080;25.550;2023-05-29T06:35:14;99450.59;;;16.37;100.00
37066;BME280;22981;43.080;25.550;2023-05-29T06:37:41;99467.11;;;16.41;100.00
37066;BME280;22981;43.080;25.550;2023-05-29T06:40:09;99460.63;;;16.42;100.00
37066;BME280;22981;43.080;25.550;2023-05-29T06:42:38;99450.09;;;16.43;100.00
37066;BME280;22981;43.080;25.550;2023-05-29T06:45:06;99437.66;;;16.44;100.00
37066;BME280;22981;43.080;25.550;2023-05-29T06:47:34;99435.27;;;16.45;100.00
37066;BME280;22981;43.080;25.550;2023-05-29T06:50:02;99446.10;;;16.50;100.00
37066;BME280;22981;43.080;25.550;2023-05-29T06:52:30;99443.13;;;16.52;100.00
37066;BME280;22981;43.080;25.550;2023-05-29T06:54:57;99437.48;;;16.53;100.00
37066;BME280;22981;43.080;25.550;2023-05-29T06:57:25;99444.00;;;16.58;100.00
37066;BME280;22981;43.080;25.550;2023-05-29T06:59:52;99436.44;;;16.60;100.00
37066;BME280;22981;43.080;25.550;2023-05-29T07:02:20;99431.33;;;16.63;100.00
37066;BME280;22981;43.080;25.550;2023-05-29T07:04:47;99432.14;;;16.64;100.00
37066;BME280;22981;43.080;25.550;2023-05-29T07:07:15;99442.14;;;16.63;100.00
37066;BME280;22981;43.080;25.550;2023-05-29T07:09:43;99442.69;;;16.63;100.00
37066;BME280;22981;43.080;25.550;2023-05-29T07:12:10;99445.11;;;16.62;100.00
37066;BME280;22981;43.080;25.550;2023-05-29T07:14:38;99445.63;;;16.61;100.00
37066;BME280;22981;43.080;25.550;2023-05-29T07:17:05;99440.77;;;16.61;100.00
37066;BME280;22981;43.080;25.550;2023-05-29T07:19:33;99442.92;;;16.61;100.00
37066;BME280;22981;43.080;25.550;2023-05-29T07:22:01;99446.98;;;16.61;100.00
37066;BME280;22981;43.080;25.550;2023-05-29T07:24:28;99451.30;;;16.60;100.00
37066;BME280;22981;43.080;25.550;2023-05-29T07:26:56;99455.62;;;16.58;100.00
37066;BME280;22981;43.080;25.550;2023-05-29T07:29:24;99451.57;;;16.58;100.00
37066;BME280;22981;43.080;25.550;2023-05-29T07:31:52;99449.38;;;16.55;100.00
37066;BME280;22981;43.080;25.550;2023-05-29T07:34:19;99450.42;;;16.49;100.00
37066;BME280;22981;43.080;25.550;2023-05-29T07:37:00;99456.88;;;16.45;100.00
37066;BME280;22981;43.080;25.550;2023-05-29T07:39:27;99455.77;;;16.44;100.00
37066;BME280;22981;43.080;25.550;2023-05-29T07:41:54;99456.07;;;16.45;100.00
37066;BME280;22981;43.080;25.550;2023-05-29T07:44:22;99454.41;;;16.44;100.00
37066;BME280;22981;43.080;25.550;2023-05-29T07:46:50;99458.20;;;16.43;100.00
37066;BME280;22981;43.080;25.550;2023-05-29T07:49:19;99459.01;;;16.43;100.00
37066;BME280;22981;43.080;25.550;2023-05-29T07:51:46;99462.25;;;16.43;100.00
37066;BME280;22981;43.080;25.550;2023-05-29T07:54:14;99470.08;;;16.42;100.00
37066;BME280;22981;43.080;25.550;2023-05-29T07:56:43;99476.03;;;16.41;100.00
37066;BME280;22981;43.080;25.550;2023-05-29T07:59:12;99469.23;;;16.39;100.00
37066;BME280;22981;43.080;25.550;2023-05-29T08:01:39;99474.64;;;16.39;100.00
37066;BME280;22981;43.080;25.550;2023-05-29T08:04:07;99477.88;;;16.38;100.00
37066;BME280;22981;43.080;25.550;2023-05-29T08:06:34;99481.66;;;16.37;100.00
37066;BME280;22981;43.080;25.550;2023-05-29T08:09:03;99488.39;;;16.35;100.00
37066;BME280;22981;43.080;25.550;2023-05-29T08:11:31;99481.90;;;16.33;100.00
37066;BME280;22981;43.080;25.550;2023-05-29T08:13:59;99482.98;;;16.32;100.00
37066;BME280;22981;43.080;25.550;2023-05-29T08:16:27;99478.92;;;16.32;100.00
37066;BME280;22981;43.080;25.550;2023-05-29T08:18:54;99475.42;;;16.34;100.00
37066;BME280;22981;43.080;25.550;2023-05-29T08:21:22;99477.34;;;16.36;100.00
37066;BME280;22981;43.080;25.550;2023-05-29T08:23:50;99480.89;;;16.42;100.00
37066;BME280;22981;43.080;25.550;2023-05-29T08:26:17;99477.14;;;16.48;100.00
37066;BME280;22981;43.080;25.550;2023-05-29T08:28:45;99479.38;;;16.53;100.00
37066;BME280;22981;43.080;25.550;2023-05-29T08:31:12;99481.00;;;16.57;100.00
37066;BME280;22981;43.080;25.550;2023-05-29T08:33:40;99482.41;;;16.62;100.00
37066;BME280;22981;43.080;25.550;2023-05-29T08:36:08;99491.09;;;16.67;100.00
37066;BME280;22981;43.080;25.550;2023-05-29T08:38:36;99491.67;;;16.71;100.00
37066;BME280;22981;43.080;25.550;2023-05-29T08:41:05;99494.16;;;16.75;100.00
37066;BME280;22981;43.080;25.550;2023-05-29T08:43:35;99491.19;;;16.77;100.00
37066;BME280;22981;43.080;25.550;2023-05-29T08:46:03;99489.56;;;16.78;100.00
37066;BME280;22981;43.080;25.550;2023-05-29T08:48:31;99486.05;;;16.78;100.00
37066;BME280;22981;43.080;25.550;2023-05-29T08:50:59;99489.33;;;16.80;100.00
37066;BME280;22981;43.080;25.550;2023-05-29T08:53:28;99485.81;;;16.82;100.00
37066;BME280;22981;43.080;25.550;2023-05-29T08:55:57;99490.17;;;16.83;100.00
37066;BME280;22981;43.080;25.550;2023-05-29T08:58:26;99477.73;;;16.85;100.00
37066;BME280;22981;43.080;25.550;2023-05-29T09:00:54;99478.30;;;16.89;100.00
37066;BME280;22981;43.080;25.550;2023-05-29T09:03:21;99472.66;;;16.93;100.00
37066;BME280;22981;43.080;25.550;2023-05-29T09:05:49;99474.03;;;16.96;100.00
37066;BME280;22981;43.080;25.550;2023-05-29T09:08:17;99470.81;;;17.01;100.00
37066;BME280;22981;43.080;25.550;2023-05-29T09:10:45;99465.97;;;17.06;100.00
37066;BME280;22981;43.080;25.550;2023-05-29T09:13:13;99473.02;;;17.12;100.00
37066;BME280;22981;43.080;25.550;2023-05-29T09:15:41;99464.66;;;17.16;100.00
37066;BME280;22981;43.080;25.550;2023-05-29T09:18:11;99466.33;;;17.22;100.00
37066;BME280;22981;43.080;25.550;2023-05-29T09:20:39;99462.29;;;17.27;99.89
37066;BME280;22981;43.080;25.550;2023-05-29T09:23:08;99464.20;;;17.32;99.67
37066;BME280;22981;43.080;25.550;2023-05-29T09:25:41;99460.16;;;17.37;99.56
37066;BME280;22981;43.080;25.550;2023-05-29T09:28:12;99457.77;;;17.43;99.73
37066;BME280;22981;43.080;25.550;2023-05-29T09:30:44;99455.33;;;17.44;99.50
37066;BME280;22981;43.080;25.550;2023-05-29T09:33:14;99451.80;;;17.46;99.32
37066;BME280;22981;43.080;25.550;2023-05-29T09:35:47;99455.34;;;17.49;99.32
37066;BME280;22981;43.080;25.550;2023-05-29T09:38:16;99455.61;;;17.50;99.06
37066;BME280;22981;43.080;25.550;2023-05-29T09:40:45;99450.20;;;17.48;98.67
37066;BME280;22981;43.080;25.550;2023-05-29T09:43:15;99452.91;;;17.48;98.89
37066;BME280;22981;43.080;25.550;2023-05-29T09:45:47;99449.91;;;17.47;98.94
37066;BME280;22981;43.080;25.550;2023-05-29T09:48:22;99456.67;;;17.47;98.89
37066;BME280;22981;43.080;25.550;2023-05-29T09:50:50;99455.59;;;17.45;98.71
37066;BME280;22981;43.080;25.550;2023-05-29T09:53:21;99453.43;;;17.45;98.49
37066;BME280;22981;43.080;25.550;2023-05-29T09:55:54;99451.00;;;17.43;98.60
37066;BME280;22981;43.080;25.550;2023-05-29T09:58:23;99453.97;;;17.44;98.75
37066;BME280;22981;43.080;25.550;2023-05-29T10:00:51;99449.10;;;17.44;98.72
37066;BME280;22981;43.080;25.550;2023-05-29T10:03:19;99437.98;;;17.43;98.86
37066;BME280;22981;43.080;25.550;2023-05-29T10:05:49;99442.88;;;17.46;99.00
37066;BME280;22981;43.080;25.550;2023-05-29T10:08:19;99443.68;;;17.46;98.90
37066;BME280;22981;43.080;25.550;2023-05-29T10:11:22;99436.66;;;17.50;98.68
37066;BME280;22981;43.080;25.550;2023-05-29T10:13:24;99436.42;;;17.57;98.60
37066;BME280;22981;43.080;25.550;2023-05-29T10:15:55;99434.30;;;17.69;98.44
37066;BME280;22981;43.080;25.550;2023-05-29T10:18:29;99431.65;;;17.82;98.40
37066;BME280;22981;43.080;25.550;2023-05-29T10:20:57;99430.03;;;17.91;98.11
37066;BME280;22981;43.080;25.550;2023-05-29T10:23:25;99428.95;;;18.02;97.64
37066;BME280;22981;43.080;25.550;2023-05-29T10:25:57;99426.53;;;18.09;97.39
37066;BME280;22981;43.080;25.550;2023-05-29T10:28:27;99431.97;;;18.16;97.29
37066;BME280;22981;43.080;25.550;2023-05-29T10:31:08;99429.78;;;18.23;96.83
37066;BME280;22981;43.080;25.550;2023-05-29T10:36:19;99424.10;;;18.30;96.02
37066;BME280;22981;43.080;25.550;2023-05-29T10:38:51;99422.47;;;18.32;95.65
37066;BME280;22981;43.080;25.550;2023-05-29T10:43:57;99407.56;;;18.32;94.51
37066;BME280;22981;43.080;25.550;2023-05-29T10:49:21;99398.09;;;18.34;94.43
37066;BME280;22981;43.080;25.550;2023-05-29T10:51:49;99395.12;;;18.33;94.51
37066;BME280;22981;43.080;25.550;2023-05-29T10:54:19;99389.14;;;18.31;94.80
37066;BME280;22981;43.080;25.550;2023-05-29T10:56:58;99389.40;;;18.32;95.04
37066;BME280;22981;43.080;25.550;2023-05-29T10:59:26;99390.21;;;18.33;95.21
37066;BME280;22981;43.080;25.550;2023-05-29T11:01:55;99393.75;;;18.31;95.20
37066;BME280;22981;43.080;25.550;2023-05-29T11:04:25;99388.86;;;18.27;95.19
37066;BME280;22981;43.080;25.550;2023-05-29T11:06:53;99386.44;;;18.26;95.45
37066;BME280;22981;43.080;25.550;2023-05-29T11:09:32;99388.33;;;18.23;95.48
37066;BME280;22981;43.080;25.550;2023-05-29T11:12:14;99389.42;;;18.22;95.49
37066;BME280;22981;43.080;25.550;2023-05-29T11:14:53;99388.34;;;18.20;95.48
37066;BME280;22981;43.080;25.550;2023-05-29T11:17:30;99384.00;;;18.17;95.69
37066;BME280;22981;43.080;25.550;2023-05-29T11:20:03;99382.39;;;18.16;95.93
37066;BME280;22981;43.080;25.550;2023-05-29T11:23:01;99381.28;;;18.14;96.15
37066;BME280;22981;43.080;25.550;2023-05-29T11:25:33;99385.61;;;18.15;96.44
37066;BME280;22981;43.080;25.550;2023-05-29T11:28:00;99380.48;;;18.16;96.68
37066;BME280;22981;43.080;25.550;2023-05-29T11:30:30;99378.56;;;18.19;96.85
37066;BME280;22981;43.080;25.550;2023-05-29T11:32:59;99373.42;;;18.23;96.84
37066;BME280;22981;43.080;25.550;2023-05-29T11:35:29;99374.49;;;18.32;96.63
37066;BME280;22981;43.080;25.550;2023-05-29T11:37:57;99373.42;;;18.38;96.40
37066;BME280;22981;43.080;25.550;2023-05-29T11:40:25;99367.17;;;18.40;96.26
37066;BME280;22981;43.080;25.550;2023-05-29T11:42:53;99364.46;;;18.40;95.85
37066;BME280;22981;43.080;25.550;2023-05-29T11:45:22;99363.11;;;18.40;95.25
37066;BME280;22981;43.080;25.550;2023-05-29T11:48:01;99375.59;;;18.39;94.75
37066;BME280;22981;43.080;25.550;2023-05-29T11:50:31;99372.33;;;18.39;94.54
37066;BME280;22981;43.080;25.550;2023-05-29T11:52:59;99375.86;;;18.35;94.36
37066;BME280;22981;43.080;25.550;2023-05-29T11:55:28;99382.08;;;18.33;94.51
37066;BME280;22981;43.080;25.550;2023-05-29T11:58:00;99383.45;;;18.27;94.77
37066;BME280;22981;43.080;25.550;2023-05-29T12:00:31;99382.36;;;18.23;95.26
37066;BME280;22981;43.080;25.550;2023-05-29T12:03:00;99385.91;;;18.16;95.55
37066;BME280;22981;43.080;25.550;2023-05-29T12:05:32;99382.38;;;18.08;95.85
37066;BME280;22981;43.080;25.550;2023-05-29T12:08:00;99389.97;;;18.04;96.13
37066;BME280;22981;43.080;25.550;2023-05-29T12:10:28;99386.72;;;17.99;96.60
37066;BME280;22981;43.080;25.550;2023-05-29T12:12:58;99383.19;;;17.96;97.20
37066;BME280;22981;43.080;25.550;2023-05-29T12:15:28;99378.56;;;17.94;97.69
37066;BME280;22981;43.080;25.550;2023-05-29T12:17:56;99385.61;;;17.92;97.97
37066;BME280;22981;43.080;25.550;2023-05-29T12:20:24;99391.02;;;17.90;98.37
37066;BME280;22981;43.080;25.550;2023-05-29T12:23:02;99392.66;;;17.88;98.76
37066;BME280;22981;43.080;25.550;2023-05-29T12:25:28;99390.77;;;17.86;98.98
37066;BME280;22981;43.080;25.550;2023-05-29T12:27:56;99391.84;;;17.83;99.02
37066;BME280;22981;43.080;25.550;2023-05-29T12:30:24;99383.45;;;17.82;98.97
37066;BME280;22981;43.080;25.550;2023-05-29T12:32:53;99386.41;;;17.80;99.08
37066;BME280;22981;43.080;25.550;2023-05-29T12:35:29;99382.06;;;17.76;99.15
37066;BME280;22981;43.080;25.550;2023-05-29T12:37:59;99376.13;;;17.74;99.29
37066;BME280;22981;43.080;25.550;2023-05-29T12:40:31;99368.77;;;17.72;99.46
37066;BME280;22981;43.080;25.550;2023-05-29T12:43:02;99369.59;;;17.70;99.45
37066;BME280;22981;43.080;25.550;2023-05-29T12:45:30;99365.51;;;17.68;99.60
37066;BME280;22981;43.080;25.550;2023-05-29T12:48:05;99359.81;;;17.64;99.75
37066;BME280;22981;43.080;25.550;2023-05-29T12:50:35;99361.73;;;17.61;99.78
37066;BME280;22981;43.080;25.550;2023-05-29T12:53:11;99357.93;;;17.57;99.71
37066;BME280;22981;43.080;25.550;2023-05-29T12:55:40;99353.58;;;17.53;99.70
37066;BME280;22981;43.080;25.550;2023-05-29T12:58:10;99362.78;;;17.47;99.66
37066;BME280;22981;43.080;25.550;2023-05-29T13:00:39;99360.59;;;17.42;99.66
37066;BME280;22981;43.080;25.550;2023-05-29T13:03:08;99360.58;;;17.37;99.78
37066;BME280;22981;43.080;25.550;2023-05-29T13:05:37;99359.48;;;17.33;99.70